Time;durP1;ratioP1;P1;durP2;ratioP2;P2;SDS_P1;SDS_P2;PMS_P1;PMS_P2;Temp;Humidity;BMP_temperature;BMP_pressure;BME280_temperature;BME280_humidity;BME280_pressure;Samples;Min_cycle;Max_cycle;Signal;HPM_P1;HPM_P2
2021/10/18 00:00:45;;;;;;;5.68;4.10;;;;;;;;;;4990836;28;20155;-45
2021/10/18 00:03:10;;;;;;;7.68;3.40;;;;;;;;;;4991018;28;20022;-45
2021/10/18 00:05:36;;;;;;;5.18;4.63;;;;;;;;;;4991477;28;20033;-43
2021/10/18 00:08:01;;;;;;;5.90;4.30;;;;;;;;;;4993406;28;20026;-47
2021/10/18 00:10:26;;;;;;;5.13;4.30;;;;;;;;;;4990413;28;20441;-43
2021/10/18 00:12:52;;;;;;;8.23;4.38;;;;;;;;;;4996084;28;20479;-45
2021/10/18 00:15:18;;;;;;;3.40;3.10;;;;;;;;;;4992673;28;20412;-44
2021/10/18 00:17:43;;;;;;;7.15;4.97;;;;;;;;;;4992764;28;20030;-43
2021/10/18 00:20:10;;;;;;;4.10;3.38;;;;;;;;;;4993496;28;20025;-43
2021/10/18 00:22:35;;;;;;;5.03;2.78;;;;;;;;;;4987351;28;20011;-46
2021/10/18 00:25:00;;;;;;;6.43;4.28;;;;;;;;;;4990069;28;20026;-46
2021/10/18 00:27:26;;;;;;;13.93;5.38;;;;;;;;;;4989310;28;20018;-43
2021/10/18 00:29:51;;;;;;;6.97;5.47;;;;;;;;;;4995419;28;20634;-43
2021/10/18 00:32:16;;;;;;;11.70;5.38;;;;;;;;;;4988571;28;20034;-48
2021/10/18 00:34:42;;;;;;;4.68;3.45;;;;;;;;;;4994070;28;20053;-45
2021/10/18 00:37:07;;;;;;;14.82;4.82;;;;;;;;;;4990723;28;20475;-44
2021/10/18 00:39:32;;;;;;;6.70;3.25;;;;;;;;;;4995913;28;20014;-46
2021/10/18 00:41:58;;;;;;;3.80;3.28;;;;;;;;;;4996205;28;20014;-46
2021/10/18 00:44:23;;;;;;;9.70;4.45;;;;;;;;;;4982938;28;20369;-45
2021/10/18 00:46:48;;;;;;;4.40;3.28;;;;;;;;;;4995852;28;20110;-43
2021/10/18 00:49:13;;;;;;;8.07;4.22;;;;;;;;;;4990179;28;20056;-47
2021/10/18 00:51:39;;;;;;;4.32;3.92;;;;;;;;;;4990662;28;20026;-44
2021/10/18 00:54:04;;;;;;;9.30;4.45;;;;;;;;;;4990020;28;20415;-43
2021/10/18 00:56:30;;;;;;;11.25;3.85;;;;;;;;;;4981756;28;20769;-47
2021/10/18 00:58:58;;;;;;;5.53;4.18;;;;;;;;;;4993164;28;20029;-49
2021/10/18 01:01:24;;;;;;;8.05;7.18;;;;;;;;;;4989567;28;20026;-44
2021/10/18 01:03:49;;;;;;;3.25;2.95;;;;;;;;;;4989501;28;20068;-42
2021/10/18 01:06:14;;;;;;;3.53;2.55;;;;;;;;;;4990547;28;20022;-43
2021/10/18 01:08:41;;;;;;;5.45;3.17;;;;;;;;;;4989561;28;20471;-43
2021/10/18 01:11:06;;;;;;;7.00;4.88;;;;;;;;;;4991257;28;20070;-43
2021/10/18 01:13:32;;;;;;;4.30;2.95;;;;;;;;;;4987567;28;20053;-42
2021/10/18 01:16:00;;;;;;;4.70;3.75;;;;;;;;;;4992775;28;20134;-42
2021/10/18 01:18:26;;;;;;;4.40;2.90;;;;;;;;;;4992838;28;20033;-45
2021/10/18 01:20:51;;;;;;;3.20;2.60;;;;;;;;;;4991973;28;20014;-44
2021/10/18 01:23:16;;;;;;;13.90;7.90;;;;;;;;;;4987866;28;20022;-43
2021/10/18 01:25:42;;;;;;;3.78;3.13;;;;;;;;;;4988845;28;20046;-47
2021/10/18 01:28:07;;;;;;;4.95;3.80;;;;;;;;;;4988007;28;20057;-48
2021/10/18 01:30:33;;;;;;;12.52;4.15;;;;;;;;;;4992474;28;20117;-45
2021/10/18 01:32:58;;;;;;;3.80;2.92;;;;;;;;;;4988825;28;20026;-42
2021/10/18 01:35:24;;;;;;;5.47;4.13;;;;;;;;;;4989157;28;20041;-45
2021/10/18 01:37:49;;;;;;;7.40;4.75;;;;;;;;;;4982239;28;20384;-44
2021/10/18 01:40:15;;;;;;;7.88;6.00;;;;;;;;;;4983640;28;20095;-44
2021/10/18 01:42:41;;;;;;;9.45;8.50;;;;;;;;;;4992761;28;20025;-45
2021/10/18 01:45:08;;;;;;;6.07;5.47;;;;;;;;;;4990045;28;20030;-43
2021/10/18 01:47:33;;;;;;;8.98;7.18;;;;;;;;;;4986569;28;20068;-42
2021/10/18 01:49:58;;;;;;;9.00;8.10;;;;;;;;;;4986288;28;20121;-44
2021/10/18 01:52:24;;;;;;;11.32;6.38;;;;;;;;;;4989616;28;20018;-43
2021/10/18 01:54:49;;;;;;;6.60;4.45;;;;;;;;;;4990487;28;20159;-46
2021/10/18 01:57:15;;;;;;;4.70;4.25;;;;;;;;;;4990478;28;20037;-47
2021/10/18 01:59:40;;;;;;;5.85;4.00;;;;;;;;;;4988794;28;20041;-43
2021/10/18 02:02:05;;;;;;;3.45;2.65;;;;;;;;;;4994191;28;20033;-43
2021/10/18 02:04:31;;;;;;;6.30;3.75;;;;;;;;;;4986372;28;20505;-43
2021/10/18 02:06:57;;;;;;;5.57;2.75;;;;;;;;;;4990185;28;20042;-43
2021/10/18 02:09:22;;;;;;;3.15;2.85;;;;;;;;;;4985524;28;20021;-47
2021/10/18 02:11:48;;;;;;;5.82;3.58;;;;;;;;;;4989559;28;20023;-45
2021/10/18 02:14:13;;;;;;;3.45;2.50;;;;;;;;;;4992221;28;20025;-43
2021/10/18 02:16:38;;;;;;;5.57;3.58;;;;;;;;;;4989815;28;20053;-42
2021/10/18 02:19:03;;;;;;;10.75;3.42;;;;;;;;;;4985258;28;20079;-45
2021/10/18 02:21:29;;;;;;;4.18;2.25;;;;;;;;;;4984546;28;20023;-43
2021/10/18 02:23:54;;;;;;;4.38;2.75;;;;;;;;;;4986909;28;20505;-43
2021/10/18 02:26:19;;;;;;;4.25;3.03;;;;;;;;;;4990734;28;20124;-42
2021/10/18 02:28:45;;;;;;;22.02;3.60;;;;;;;;;;4989836;28;20027;-45
2021/10/18 02:31:10;;;;;;;3.53;2.92;;;;;;;;;;4989244;28;20027;-44
2021/10/18 02:33:35;;;;;;;4.60;3.17;;;;;;;;;;4988413;28;20029;-50
2021/10/18 02:36:01;;;;;;;3.92;3.13;;;;;;;;;;4994545;28;20033;-43
2021/10/18 02:38:26;;;;;;;10.50;3.33;;;;;;;;;;4986937;28;20026;-42
2021/10/18 02:40:51;;;;;;;4.22;3.63;;;;;;;;;;4986888;28;20638;-42
2021/10/18 02:43:17;;;;;;;5.55;3.83;;;;;;;;;;4986504;28;20022;-45
2021/10/18 02:45:42;;;;;;;3.28;2.90;;;;;;;;;;4988828;28;20042;-45
2021/10/18 02:48:08;;;;;;;4.10;2.88;;;;;;;;;;4990865;28;20446;-48
2021/10/18 02:50:34;;;;;;;6.28;5.63;;;;;;;;;;4989579;28;20050;-42
2021/10/18 02:53:00;;;;;;;16.45;7.03;;;;;;;;;;4988704;28;20033;-44
2021/10/18 02:55:25;;;;;;;7.38;4.78;;;;;;;;;;4986861;28;20017;-43
2021/10/18 02:57:50;;;;;;;5.43;3.78;;;;;;;;;;4988645;28;20079;-43
2021/10/18 03:00:15;;;;;;;4.20;3.75;;;;;;;;;;4989131;28;20062;-43
2021/10/18 03:02:41;;;;;;;5.70;4.22;;;;;;;;;;4989245;28;20455;-48
2021/10/18 03:05:07;;;;;;;5.47;4.97;;;;;;;;;;4988399;28;20433;-45
2021/10/18 03:07:32;;;;;;;5.65;4.22;;;;;;;;;;4990926;28;20106;-46
2021/10/18 03:09:57;;;;;;;9.27;4.75;;;;;;;;;;4993412;28;20104;-46
2021/10/18 03:12:23;;;;;;;4.97;4.45;;;;;;;;;;4988531;28;20022;-46
2021/10/18 03:14:48;;;;;;;3.65;3.28;;;;;;;;;;4980476;28;20033;-43
2021/10/18 03:17:13;;;;;;;5.90;4.35;;;;;;;;;;4985331;28;20483;-43
2021/10/18 03:19:39;;;;;;;3.75;3.25;;;;;;;;;;4989957;28;20023;-43
2021/10/18 03:22:04;;;;;;;5.07;3.97;;;;;;;;;;4993797;28;20488;-47
2021/10/18 03:24:29;;;;;;;7.40;4.25;;;;;;;;;;4988077;28;20117;-42
2021/10/18 03:26:55;;;;;;;7.32;4.75;;;;;;;;;;4984651;28;20037;-45
2021/10/18 03:29:20;;;;;;;6.97;4.97;;;;;;;;;;4983236;28;20101;-46
2021/10/18 03:31:45;;;;;;;4.82;4.05;;;;;;;;;;4991132;28;20079;-49
2021/10/18 03:34:10;;;;;;;8.75;4.07;;;;;;;;;;4989790;28;20716;-49
2021/10/18 03:36:36;;;;;;;6.60;5.63;;;;;;;;;;4994378;28;20053;-43
2021/10/18 03:39:01;;;;;;;4.90;4.50;;;;;;;;;;4983365;28;20046;-43
2021/10/18 03:41:27;;;;;;;3.80;2.92;;;;;;;;;;4990862;28;20387;-45
2021/10/18 03:43:52;;;;;;;4.20;3.78;;;;;;;;;;4988795;28;20025;-42
2021/10/18 03:46:17;;;;;;;3.67;3.38;;;;;;;;;;4989864;28;20050;-46
2021/10/18 03:48:43;;;;;;;4.35;3.75;;;;;;;;;;4991270;28;20045;-45
2021/10/18 03:51:08;;;;;;;8.00;4.13;;;;;;;;;;4990336;28;20086;-47
2021/10/18 03:53:33;;;;;;;3.85;3.03;;;;;;;;;;4986564;28;20029;-49
2021/10/18 03:55:59;;;;;;;6.00;4.53;;;;;;;;;;4990771;28;20647;-46
2021/10/18 03:58:24;;;;;;;5.22;4.80;;;;;;;;;;4985538;28;20490;-44
2021/10/18 04:00:49;;;;;;;3.97;3.17;;;;;;;;;;4986966;28;20534;-45
2021/10/18 04:03:15;;;;;;;6.70;3.90;;;;;;;;;;4989767;28;20089;-45
2021/10/18 04:05:40;;;;;;;5.78;4.20;;;;;;;;;;4990032;28;20022;-44
2021/10/18 04:08:05;;;;;;;12.95;3.85;;;;;;;;;;4993815;28;20022;-46
2021/10/18 04:10:32;;;;;;;6.00;3.97;;;;;;;;;;4984703;28;20022;-46
2021/10/18 04:12:59;;;;;;;7.40;4.28;;;;;;;;;;4987145;28;20038;-43
2021/10/18 04:15:24;;;;;;;11.27;3.83;;;;;;;;;;4991477;28;20527;-44
2021/10/18 04:17:50;;;;;;;4.28;3.03;;;;;;;;;;4991797;28;20033;-44
2021/10/18 04:20:15;;;;;;;3.30;2.83;;;;;;;;;;4990821;28;20030;-47
2021/10/18 04:22:42;;;;;;;4.25;3.58;;;;;;;;;;4987500;28;20491;-46
2021/10/18 04:25:07;;;;;;;5.60;4.03;;;;;;;;;;4988355;28;20540;-43
2021/10/18 04:27:32;;;;;;;3.25;2.75;;;;;;;;;;4994823;28;20105;-42
2021/10/18 04:29:58;;;;;;;3.63;3.30;;;;;;;;;;4993555;28;20030;-48
2021/10/18 04:32:23;;;;;;;3.28;2.75;;;;;;;;;;4993780;28;20076;-47
2021/10/18 04:34:48;;;;;;;3.75;3.13;;;;;;;;;;4994669;28;20042;-45
2021/10/18 04:37:14;;;;;;;4.43;2.75;;;;;;;;;;4995008;28;20032;-47
2021/10/18 04:39:39;;;;;;;4.32;3.00;;;;;;;;;;4998636;28;20022;-46
2021/10/18 04:42:04;;;;;;;6.25;3.20;;;;;;;;;;4991128;28;20027;-43
2021/10/18 04:44:30;;;;;;;6.00;4.25;;;;;;;;;;4996159;28;20125;-46
2021/10/18 04:46:55;;;;;;;3.22;2.88;;;;;;;;;;4993396;28;20058;-49
2021/10/18 04:49:20;;;;;;;4.57;3.67;;;;;;;;;;4993673;28;20030;-46
2021/10/18 04:51:45;;;;;;;4.00;2.88;;;;;;;;;;4990343;28;20522;-47
2021/10/18 04:54:11;;;;;;;5.95;4.70;;;;;;;;;;4997687;28;20044;-49
2021/10/18 04:56:36;;;;;;;4.72;3.85;;;;;;;;;;4996342;28;20018;-44
2021/10/18 04:59:01;;;;;;;3.75;3.22;;;;;;;;;;4990108;28;20022;-45
2021/10/18 05:01:27;;;;;;;5.07;4.55;;;;;;;;;;4990297;28;20529;-50
2021/10/18 05:03:52;;;;;;;5.03;4.53;;;;;;;;;;4989754;28;20391;-51
2021/10/18 05:06:18;;;;;;;3.83;3.38;;;;;;;;;;4992098;28;20026;-46
2021/10/18 05:08:43;;;;;;;8.18;5.63;;;;;;;;;;4987031;28;20030;-45
2021/10/18 05:11:08;;;;;;;4.30;3.55;;;;;;;;;;4992149;28;20026;-48
2021/10/18 05:13:33;;;;;;;6.68;3.60;;;;;;;;;;4992532;28;20038;-45
2021/10/18 05:15:59;;;;;;;6.05;3.78;;;;;;;;;;4988938;28;20049;-45
2021/10/18 05:18:24;;;;;;;7.43;3.20;;;;;;;;;;4987243;28;20120;-49
2021/10/18 05:20:50;;;;;;;8.60;4.75;;;;;;;;;;4986783;28;20494;-47
2021/10/18 05:23:16;;;;;;;6.13;3.30;;;;;;;;;;4989986;28;20056;-47
2021/10/18 05:25:41;;;;;;;6.25;4.50;;;;;;;;;;4997101;28;20022;-46
2021/10/18 05:28:06;;;;;;;10.00;6.88;;;;;;;;;;4991866;28;20220;-44
2021/10/18 05:30:32;;;;;;;6.15;4.97;;;;;;;;;;4986204;28;20068;-44
2021/10/18 05:32:58;;;;;;;6.88;4.65;;;;;;;;;;4989502;28;20026;-42
2021/10/18 05:35:24;;;;;;;17.00;3.45;;;;;;;;;;4990777;28;20033;-42
2021/10/18 05:37:49;;;;;;;4.55;3.42;;;;;;;;;;4990529;28;20467;-44
2021/10/18 05:40:15;;;;;;;5.40;4.78;;;;;;;;;;4990976;28;20495;-45
2021/10/18 05:42:40;;;;;;;6.75;5.03;;;;;;;;;;4990475;28;20493;-45
2021/10/18 05:45:06;;;;;;;9.27;7.35;;;;;;;;;;4989854;28;20064;-45
2021/10/18 05:47:31;;;;;;;6.88;4.72;;;;;;;;;;4990699;28;20056;-46
2021/10/18 05:49:59;;;;;;;5.88;5.00;;;;;;;;;;4991428;28;20215;-43
2021/10/18 05:52:24;;;;;;;8.15;5.03;;;;;;;;;;4986555;28;20018;-43
2021/10/18 05:54:49;;;;;;;5.82;3.80;;;;;;;;;;4991605;28;20026;-42
2021/10/18 05:57:15;;;;;;;19.50;4.68;;;;;;;;;;4989128;28;20097;-44
2021/10/18 05:59:40;;;;;;;21.77;11.90;;;;;;;;;;4991476;28;20021;-43
2021/10/18 06:02:06;;;;;;;21.88;9.00;;;;;;;;;;4987520;28;20777;-41
2021/10/18 06:04:33;;;;;;;8.60;6.22;;;;;;;;;;4982600;28;20131;-41
2021/10/18 06:06:59;;;;;;;6.32;4.75;;;;;;;;;;4989445;28;20030;-42
2021/10/18 06:09:24;;;;;;;17.23;8.18;;;;;;;;;;4989731;28;20026;-45
2021/10/18 06:11:49;;;;;;;17.80;5.60;;;;;;;;;;4987704;28;20021;-44
2021/10/18 06:14:15;;;;;;;7.25;5.10;;;;;;;;;;4990744;28;20114;-44
2021/10/18 06:16:40;;;;;;;7.97;4.93;;;;;;;;;;4988932;28;20025;-45
2021/10/18 06:19:05;;;;;;;4.22;3.83;;;;;;;;;;4991159;28;20087;-42
2021/10/18 06:21:31;;;;;;;6.60;5.53;;;;;;;;;;4988857;28;20105;-43
2021/10/18 06:23:56;;;;;;;7.00;5.78;;;;;;;;;;4991630;28;20029;-43
2021/10/18 06:26:21;;;;;;;10.90;6.63;;;;;;;;;;4987931;28;20050;-45
2021/10/18 06:28:47;;;;;;;8.00;5.93;;;;;;;;;;4993348;28;20021;-51
2021/10/18 06:31:12;;;;;;;5.97;5.40;;;;;;;;;;4989547;28;20137;-53
2021/10/18 06:33:37;;;;;;;8.93;6.28;;;;;;;;;;4985263;28;20455;-50
2021/10/18 06:36:03;;;;;;;8.18;6.55;;;;;;;;;;4985680;28;20022;-47
2021/10/18 06:38:28;;;;;;;11.55;8.68;;;;;;;;;;4983555;28;20026;-48
2021/10/18 06:40:53;;;;;;;10.73;7.60;;;;;;;;;;4987119;28;20050;-46
2021/10/18 06:43:19;;;;;;;13.25;9.13;;;;;;;;;;4985843;28;20140;-49
2021/10/18 06:45:45;;;;;;;12.80;9.55;;;;;;;;;;4987632;28;20042;-48
2021/10/18 06:48:13;;;;;;;14.20;10.15;;;;;;;;;;4988003;28;20113;-50
2021/10/18 06:50:39;;;;;;;23.75;15.50;;;;;;;;;;4984936;28;20021;-50
2021/10/18 06:53:09;;;;;;;22.50;16.70;;;;;;;;;;4987523;28;20038;-48
2021/10/18 06:55:35;;;;;;;21.67;16.10;;;;;;;;;;4990735;28;20068;-49
2021/10/18 06:58:01;;;;;;;10.10;8.35;;;;;;;;;;4986850;28;20542;-45
2021/10/18 07:00:27;;;;;;;11.60;7.88;;;;;;;;;;4986918;28;20622;-46
2021/10/18 07:02:52;;;;;;;15.55;8.60;;;;;;;;;;4988851;28;20740;-52
2021/10/18 07:05:17;;;;;;;11.13;8.43;;;;;;;;;;4988376;28;20029;-50
2021/10/18 07:07:43;;;;;;;7.72;6.90;;;;;;;;;;4989622;28;20022;-50
2021/10/18 07:10:08;;;;;;;18.25;11.15;;;;;;;;;;4991456;28;20439;-49
2021/10/18 07:12:35;;;;;;;24.85;22.42;;;;;;;;;;4989401;28;20062;-49
2021/10/18 07:15:00;;;;;;;41.38;33.20;;;;;;;;;;4988652;28;20033;-48
2021/10/18 07:17:27;;;;;;;51.67;37.08;;;;;;;;;;4983226;28;20023;-50
2021/10/18 07:19:53;;;;;;;50.60;43.20;;;;;;;;;;4986109;28;20547;-49
2021/10/18 07:22:19;;;;;;;40.55;33.13;;;;;;;;;;4986285;28;20483;-48
2021/10/18 07:24:45;;;;;;;46.47;36.50;;;;;;;;;;4991746;28;20033;-49
2021/10/18 07:27:10;;;;;;;39.92;32.80;;;;;;;;;;4984372;28;20023;-46
2021/10/18 07:29:36;;;;;;;39.40;33.22;;;;;;;;;;4982261;28;20051;-48
2021/10/18 07:32:01;;;;;;;40.90;36.42;;;;;;;;;;4986576;28;20395;-45
2021/10/18 07:34:27;;;;;;;36.00;32.20;;;;;;;;;;4987251;28;20034;-49
2021/10/18 07:36:52;;;;;;;60.22;35.67;;;;;;;;;;4985741;28;20483;-51
2021/10/18 07:39:19;;;;;;;58.58;46.78;;;;;;;;;;4986648;28;20031;-51
2021/10/18 07:41:44;;;;;;;63.60;50.17;;;;;;;;;;4983976;28;20038;-50
2021/10/18 07:44:09;;;;;;;93.55;74.38;;;;;;;;;;4981053;28;20038;-49
2021/10/18 07:46:35;;;;;;;45.50;34.78;;;;;;;;;;4990514;28;20053;-51
2021/10/18 07:49:00;;;;;;;33.35;29.63;;;;;;;;;;4989477;28;20030;-49
2021/10/18 07:51:26;;;;;;;31.23;25.08;;;;;;;;;;4990539;28;20049;-50
2021/10/18 07:53:51;;;;;;;37.83;27.55;;;;;;;;;;4983404;28;20116;-52
2021/10/18 07:56:17;;;;;;;33.55;30.13;;;;;;;;;;4994894;28;20029;-52
2021/10/18 07:58:42;;;;;;;37.60;32.25;;;;;;;;;;4987299;28;20023;-49
2021/10/18 08:01:07;;;;;;;46.78;30.33;;;;;;;;;;4987787;28;20681;-51
2021/10/18 08:03:33;;;;;;;25.30;19.88;;;;;;;;;;4990682;28;20030;-52
2021/10/18 08:05:58;;;;;;;19.17;17.23;;;;;;;;;;4994596;28;20182;-53
2021/10/18 08:08:29;;;;;;;32.10;21.98;;;;;;;;;;4994113;28;20062;-52
2021/10/18 08:10:55;;;;;;;21.77;19.40;;;;;;;;;;4984155;28;20038;-53
2021/10/18 08:13:20;;;;;;;34.03;21.35;;;;;;;;;;4987344;28;20494;-52
2021/10/18 08:15:46;;;;;;;56.35;40.63;;;;;;;;;;4992866;28;20400;-52
2021/10/18 08:18:11;;;;;;;50.47;43.65;;;;;;;;;;4996110;28;20029;-52
2021/10/18 08:20:37;;;;;;;47.67;32.50;;;;;;;;;;4995246;28;20533;-49
2021/10/18 08:23:03;;;;;;;35.63;27.73;;;;;;;;;;4990282;28;20910;-48
2021/10/18 08:25:28;;;;;;;25.40;20.70;;;;;;;;;;4991117;28;20495;-50
2021/10/18 08:27:54;;;;;;;14.88;11.90;;;;;;;;;;4989475;28;20544;-53
2021/10/18 08:30:20;;;;;;;15.10;13.57;;;;;;;;;;4991939;28;20029;-51
2021/10/18 08:32:45;;;;;;;24.58;19.98;;;;;;;;;;4991410;28;20483;-51
2021/10/18 08:35:11;;;;;;;25.88;21.88;;;;;;;;;;4991125;28;20026;-50
2021/10/18 08:40:23;;;;;;;20.92;15.90;;;;;;;;;;4986137;28;20500;-50
2021/10/18 08:45:19;;;;;;;40.55;19.80;;;;;;;;;;4989539;28;20681;-49
2021/10/18 08:47:45;;;;;;;27.15;15.13;;;;;;;;;;4983675;28;20140;-50
2021/10/18 08:50:10;;;;;;;14.45;10.00;;;;;;;;;;4982292;28;20071;-47
2021/10/18 08:52:40;;;;;;;6.97;5.47;;;;;;;;;;4989204;28;20022;-48
2021/10/18 08:55:06;;;;;;;10.05;7.00;;;;;;;;;;4999439;28;20018;-47
2021/10/18 08:57:31;;;;;;;10.02;9.05;;;;;;;;;;4990091;28;20076;-47
2021/10/18 08:59:56;;;;;;;47.85;39.58;;;;;;;;;;4992867;28;20471;-49
2021/10/18 09:02:33;;;;;;;13.70;9.38;;;;;;;;;;4990891;28;20050;-48
2021/10/18 09:04:59;;;;;;;15.82;7.30;;;;;;;;;;4988900;28;20018;-48
2021/10/18 09:07:24;;;;;;;11.40;9.77;;;;;;;;;;4990797;28;20085;-47
2021/10/18 09:09:50;;;;;;;24.40;19.00;;;;;;;;;;4993005;28;20045;-49
2021/10/18 09:12:27;;;;;;;47.10;15.98;;;;;;;;;;4992313;28;20099;-52
2021/10/18 09:14:54;;;;;;;20.05;13.32;;;;;;;;;;4994818;28;20019;-45
2021/10/18 09:17:32;;;;;;;9.32;5.45;;;;;;;;;;4993510;28;20022;-48
2021/10/18 09:20:16;;;;;;;8.93;5.45;;;;;;;;;;4990265;28;20854;-50
2021/10/18 09:22:41;;;;;;;6.22;5.32;;;;;;;;;;4994785;28;20057;-45
2021/10/18 09:25:07;;;;;;;5.43;4.88;;;;;;;;;;4993724;28;20103;-47
2021/10/18 09:27:32;;;;;;;6.68;5.95;;;;;;;;;;4994008;28;20502;-53
2021/10/18 09:29:57;;;;;;;6.65;5.97;;;;;;;;;;4992393;28;20045;-49
2021/10/18 09:32:25;;;;;;;5.88;5.03;;;;;;;;;;4992563;28;20083;-48
2021/10/18 09:35:02;;;;;;;8.48;5.80;;;;;;;;;;4991537;28;20035;-45
2021/10/18 09:37:36;;;;;;;8.77;5.25;;;;;;;;;;4995689;28;20022;-47
2021/10/18 09:40:01;;;;;;;8.30;5.47;;;;;;;;;;4995237;28;20190;-48
2021/10/18 09:42:26;;;;;;;4.75;3.10;;;;;;;;;;4991185;28;20498;-49
2021/10/18 09:47:52;;;;;;;9.05;4.07;;;;;;;;;;4992739;28;20049;-48
2021/10/18 10:54:06;;;;;;;13.38;6.65;;;;;;;;;;4987391;28;20022;-50
2021/10/18 10:56:38;;;;;;;6.43;5.75;;;;;;;;;;4990923;28;20033;-47
2021/10/18 10:59:23;;;;;;;8.70;4.72;;;;;;;;;;4990152;28;20032;-51
2021/10/18 11:01:51;;;;;;;27.38;9.18;;;;;;;;;;4989992;28;20096;-52
2021/10/18 11:04:32;;;;;;;11.25;5.10;;;;;;;;;;4986537;28;20031;-52
2021/10/18 11:06:57;;;;;;;9.73;6.72;;;;;;;;;;4991479;28;20111;-50
2021/10/18 11:09:35;;;;;;;16.95;7.68;;;;;;;;;;4990131;28;20499;-50
2021/10/18 11:12:00;;;;;;;11.80;6.72;;;;;;;;;;4990155;28;20027;-46
2021/10/18 11:14:26;;;;;;;22.83;6.47;;;;;;;;;;4988102;28;20025;-48
2021/10/18 11:16:52;;;;;;;10.10;6.32;;;;;;;;;;4988437;28;20030;-48
2021/10/18 11:19:20;;;;;;;9.50;7.78;;;;;;;;;;4991161;28;20022;-46
2021/10/18 11:21:53;;;;;;;9.48;7.25;;;;;;;;;;4995374;28;20032;-51
2021/10/18 11:24:19;;;;;;;7.18;6.38;;;;;;;;;;4993929;28;20515;-44
2021/10/18 11:26:44;;;;;;;9.40;5.72;;;;;;;;;;4994936;28;20026;-45
2021/10/18 11:29:10;;;;;;;13.40;6.85;;;;;;;;;;4990949;28;20029;-44
2021/10/18 11:31:39;;;;;;;15.40;9.82;;;;;;;;;;4994319;28;20021;-49
2021/10/18 11:34:08;;;;;;;10.18;8.13;;;;;;;;;;4991525;28;20018;-46
2021/10/18 11:36:34;;;;;;;10.05;6.82;;;;;;;;;;4991732;28;20022;-50
2021/10/18 11:39:06;;;;;;;9.43;5.85;;;;;;;;;;4995277;28;20029;-45
2021/10/18 11:41:31;;;;;;;7.82;5.72;;;;;;;;;;4994787;28;20030;-47
2021/10/18 11:43:56;;;;;;;7.15;5.53;;;;;;;;;;4989291;28;20026;-48
2021/10/18 11:46:22;;;;;;;6.65;4.07;;;;;;;;;;4989360;28;20461;-49
2021/10/18 11:48:47;;;;;;;12.43;7.43;;;;;;;;;;4999408;28;20014;-46
2021/10/18 11:51:12;;;;;;;13.50;9.38;;;;;;;;;;4996083;28;20029;-50
2021/10/18 11:53:41;;;;;;;13.65;7.18;;;;;;;;;;4995580;28;20032;-49
2021/10/18 11:56:06;;;;;;;9.10;7.07;;;;;;;;;;4991976;28;20030;-49
2021/10/18 11:58:32;;;;;;;9.88;8.90;;;;;;;;;;4994937;28;20014;-46
2021/10/18 12:01:02;;;;;;;21.70;9.80;;;;;;;;;;4989801;28;20018;-52
2021/10/18 12:03:28;;;;;;;21.67;9.18;;;;;;;;;;4993092;28;20018;-45
2021/10/18 12:05:54;;;;;;;13.52;10.18;;;;;;;;;;4989746;28;20156;-49
2021/10/18 12:08:21;;;;;;;6.95;4.93;;;;;;;;;;4989830;28;20041;-53
2021/10/18 12:10:48;;;;;;;6.18;5.57;;;;;;;;;;4988302;28;20028;-49
2021/10/18 12:13:42;;;;;;;6.75;5.30;;;;;;;;;;4990646;28;20415;-49
2021/10/18 12:16:15;;;;;;;4.65;3.22;;;;;;;;;;5003247;28;20026;-48
2021/10/18 12:18:46;;;;;;;5.32;3.97;;;;;;;;;;4992952;28;20026;-47
2021/10/18 12:21:22;;;;;;;31.38;7.82;;;;;;;;;;4995247;28;20029;-47
2021/10/18 12:23:58;;;;;;;22.45;14.00;;;;;;;;;;4989907;28;20486;-48
2021/10/18 12:26:25;;;;;;;33.33;12.98;;;;;;;;;;4988968;28;20030;-48
2021/10/18 12:28:51;;;;;;;5.50;3.67;;;;;;;;;;4997442;28;20026;-55
2021/10/18 12:31:36;;;;;;;8.35;4.30;;;;;;;;;;4989692;28;20026;-53
2021/10/18 12:34:01;;;;;;;54.05;15.88;;;;;;;;;;4989265;28;20034;-49
2021/10/18 12:36:28;;;;;;;4.35;2.80;;;;;;;;;;4994073;28;20032;-53
2021/10/18 12:38:53;;;;;;;5.43;3.53;;;;;;;;;;4993831;28;20027;-47
2021/10/18 12:41:19;;;;;;;7.35;4.10;;;;;;;;;;4993148;28;20109;-50
2021/10/18 12:43:45;;;;;;;8.30;2.85;;;;;;;;;;4992410;28;20025;-50
2021/10/18 12:46:18;;;;;;;1.90;1.48;;;;;;;;;;4993582;28;20054;-53
2021/10/18 12:49:00;;;;;;;3.83;2.72;;;;;;;;;;4991657;28;20018;-44
2021/10/18 12:51:36;;;;;;;7.10;4.15;;;;;;;;;;4986777;28;20031;-46
2021/10/18 12:54:18;;;;;;;6.35;3.25;;;;;;;;;;4988694;28;20022;-47
2021/10/18 12:56:43;;;;;;;11.75;4.63;;;;;;;;;;4995577;28;20498;-47
2021/10/18 12:59:08;;;;;;;12.25;5.75;;;;;;;;;;4990845;28;20054;-51
2021/10/18 13:01:34;;;;;;;6.40;4.63;;;;;;;;;;4989366;28;20018;-50
2021/10/18 13:04:18;;;;;;;7.85;4.32;;;;;;;;;;4986483;28;20074;-50
2021/10/18 13:06:43;;;;;;;9.20;5.82;;;;;;;;;;4988600;28;20026;-51
2021/10/18 13:09:08;;;;;;;33.35;10.85;;;;;;;;;;4988434;28;20067;-48
2021/10/18 13:11:34;;;;;;;9.23;5.80;;;;;;;;;;4991088;28;20030;-51
2021/10/18 13:13:59;;;;;;;6.05;4.47;;;;;;;;;;4991090;28;20483;-50
2021/10/18 13:16:24;;;;;;;7.10;5.18;;;;;;;;;;4990869;28;20018;-48
2021/10/18 13:18:51;;;;;;;4.63;3.60;;;;;;;;;;4991754;28;20019;-48
2021/10/18 13:21:16;;;;;;;6.50;4.13;;;;;;;;;;4990853;28;20053;-47
2021/10/18 13:23:42;;;;;;;8.38;5.05;;;;;;;;;;4991261;28;20026;-47
2021/10/18 13:26:07;;;;;;;9.52;3.40;;;;;;;;;;4987773;28;20018;-52
2021/10/18 13:28:32;;;;;;;7.85;4.43;;;;;;;;;;4991014;28;20058;-47
2021/10/18 13:30:58;;;;;;;11.38;4.40;;;;;;;;;;4992371;28;20075;-49
2021/10/18 13:33:23;;;;;;;5.85;3.60;;;;;;;;;;4990401;28;20156;-50
2021/10/18 13:35:48;;;;;;;9.68;3.25;;;;;;;;;;4987968;28;20745;-48
2021/10/18 13:38:13;;;;;;;2.80;2.55;;;;;;;;;;4990776;28;20022;-48
2021/10/18 13:40:39;;;;;;;5.78;2.75;;;;;;;;;;4988171;28;20098;-51
2021/10/18 13:43:06;;;;;;;4.75;3.58;;;;;;;;;;4983905;28;20010;-45
2021/10/18 13:45:31;;;;;;;9.20;2.85;;;;;;;;;;4988361;28;20032;-45
2021/10/18 13:47:57;;;;;;;8.70;4.88;;;;;;;;;;4987233;28;20038;-51
2021/10/18 13:50:23;;;;;;;6.97;4.25;;;;;;;;;;4992017;28;20027;-48
2021/10/18 13:52:52;;;;;;;8.40;4.85;;;;;;;;;;4990399;28;20637;-46
2021/10/18 13:55:18;;;;;;;6.75;4.05;;;;;;;;;;4987872;28;20030;-46
2021/10/18 13:57:43;;;;;;;5.38;3.47;;;;;;;;;;4988112;28;20018;-46
2021/10/18 14:00:09;;;;;;;7.28;2.78;;;;;;;;;;4984924;28;20030;-46
2021/10/18 14:02:35;;;;;;;4.75;2.78;;;;;;;;;;4993613;28;20446;-46
2021/10/18 14:05:01;;;;;;;8.48;2.97;;;;;;;;;;4986280;28;20122;-46
2021/10/18 14:07:26;;;;;;;3.28;1.85;;;;;;;;;;4987871;28;20114;-46
2021/10/18 14:09:52;;;;;;;4.43;2.45;;;;;;;;;;4986920;28;20028;-48
2021/10/18 14:12:17;;;;;;;4.70;3.42;;;;;;;;;;4986151;28;20026;-50
2021/10/18 14:14:42;;;;;;;3.55;2.33;;;;;;;;;;4988295;28;20074;-53
2021/10/18 14:17:08;;;;;;;4.20;3.80;;;;;;;;;;4990532;28;20109;-46
2021/10/18 14:19:33;;;;;;;5.10;2.00;;;;;;;;;;4990673;28;20163;-46
2021/10/18 14:21:59;;;;;;;2.60;1.60;;;;;;;;;;4987815;28;20558;-46
2021/10/18 14:24:24;;;;;;;7.15;3.08;;;;;;;;;;4988430;28;20028;-44
2021/10/18 14:26:49;;;;;;;2.92;2.30;;;;;;;;;;4987896;28;20018;-44
2021/10/18 14:29:14;;;;;;;6.15;4.70;;;;;;;;;;4992655;28;20026;-45
2021/10/18 14:31:40;;;;;;;2.47;2.00;;;;;;;;;;4989651;28;20476;-45
2021/10/18 14:34:05;;;;;;;3.58;1.58;;;;;;;;;;4989187;28;20050;-51
2021/10/18 14:36:31;;;;;;;5.28;1.42;;;;;;;;;;4990817;28;20050;-46
2021/10/18 14:38:57;;;;;;;5.22;2.65;;;;;;;;;;4988488;28;20544;-53
2021/10/18 14:41:27;;;;;;;4.32;2.83;;;;;;;;;;4989868;28;20029;-51
2021/10/18 14:43:55;;;;;;;1.60;1.30;;;;;;;;;;4992071;28;20010;-53
2021/10/18 14:46:21;;;;;;;2.55;1.75;;;;;;;;;;4992364;28;20056;-50
2021/10/18 14:48:47;;;;;;;6.47;2.50;;;;;;;;;;4989408;28;20055;-53
2021/10/18 14:51:12;;;;;;;3.47;2.80;;;;;;;;;;4985482;28;20097;-54
2021/10/18 14:53:38;;;;;;;3.72;2.60;;;;;;;;;;4987334;28;20026;-49
2021/10/18 14:56:03;;;;;;;2.25;1.02;;;;;;;;;;4993564;28;20086;-53
2021/10/18 14:58:29;;;;;;;4.03;2.78;;;;;;;;;;4985621;28;20109;-54
2021/10/18 15:00:54;;;;;;;2.25;0.93;;;;;;;;;;4986190;28;20714;-52
2021/10/18 15:03:20;;;;;;;2.00;1.50;;;;;;;;;;4990571;28;20018;-54
2021/10/18 15:05:45;;;;;;;1.85;1.65;;;;;;;;;;4986574;28;20010;-53
2021/10/18 15:08:10;;;;;;;1.48;1.10;;;;;;;;;;4992667;28;20030;-50
2021/10/18 15:10:35;;;;;;;3.03;2.13;;;;;;;;;;4993492;28;20033;-52
2021/10/18 15:13:03;;;;;;;2.75;1.17;;;;;;;;;;4986615;28;20780;-55
2021/10/18 15:15:28;;;;;;;7.88;3.15;;;;;;;;;;4992548;28;20087;-55
2021/10/18 15:17:54;;;;;;;5.05;3.42;;;;;;;;;;4985995;28;20113;-56
2021/10/18 15:20:20;;;;;;;12.95;5.30;;;;;;;;;;4986951;28;20492;-53
2021/10/18 15:22:45;;;;;;;8.18;4.57;;;;;;;;;;4988833;28;20031;-53
2021/10/18 15:25:11;;;;;;;7.40;5.30;;;;;;;;;;4995534;28;20037;-53
2021/10/18 15:27:37;;;;;;;9.50;6.32;;;;;;;;;;4991340;28;20380;-54
2021/10/18 15:30:05;;;;;;;6.75;4.57;;;;;;;;;;4990437;28;20041;-49
2021/10/18 15:32:30;;;;;;;14.15;7.82;;;;;;;;;;4992327;28;20037;-55
2021/10/18 15:34:55;;;;;;;15.82;9.38;;;;;;;;;;4992661;28;20019;-53
2021/10/18 15:37:21;;;;;;;7.60;6.35;;;;;;;;;;4990822;28;20483;-52
2021/10/18 15:39:46;;;;;;;10.23;7.18;;;;;;;;;;4986135;28;20139;-52
2021/10/18 15:42:11;;;;;;;7.40;4.32;;;;;;;;;;4987472;28;21024;-55